createdAt,value
2019-06-27T00:02:21.109Z,100995.56
2019-06-27T00:04:50.272Z,100995.56
2019-06-27T00:07:19.587Z,100994.52
2019-06-27T00:09:48.973Z,101000.97
2019-06-27T00:12:19.865Z,101002.03
2019-06-27T00:14:49.104Z,101004.30
2019-06-27T00:17:18.295Z,101007.20
2019-06-27T00:19:51.831Z,101006.45
2019-06-27T00:22:21.047Z,101005.07
2019-06-27T00:24:50.384Z,101006.13
2019-06-27T00:27:20.496Z,101003.39
2019-06-27T00:29:49.813Z,101007.34
2019-06-27T00:32:19.126Z,101013.60
2019-06-27T00:34:48.665Z,101015.56
2019-06-27T00:37:18.198Z,101016.26
2019-06-27T00:39:48.487Z,101017.31
2019-06-27T00:42:18.019Z,101016.34
2019-06-27T00:44:47.201Z,101015.20
2019-06-27T00:47:16.441Z,101025.09
2019-06-27T00:49:46.224Z,101021.02
2019-06-27T00:52:15.443Z,101028.93
2019-06-27T00:54:44.703Z,101031.94
2019-06-27T00:57:15.421Z,101029.22
2019-06-27T00:59:44.733Z,101027.19
2019-06-27T01:02:14.208Z,101028.17
2019-06-27T01:04:43.758Z,101025.88
2019-06-27T01:07:13.168Z,101025.11
2019-06-27T01:09:42.505Z,101031.55
2019-06-27T01:12:14.107Z,101030.70
2019-06-27T01:14:43.383Z,101043.64
2019-06-27T01:17:12.765Z,101042.53
2019-06-27T01:19:43.360Z,101037.36
2019-06-27T01:22:12.588Z,101042.02
2019-06-27T01:24:41.981Z,101049.16
2019-06-27T01:27:11.263Z,101049.80
2019-06-27T01:29:40.556Z,101053.39
2019-06-27T01:32:10.166Z,101055.42
2019-06-27T01:34:39.453Z,101054.39
2019-06-27T01:37:08.668Z,101055.76
2019-06-27T01:39:38.306Z,101053.76
2019-06-27T01:42:07.604Z,101056.41
2019-06-27T01:45:11.024Z,101061.66
2019-06-27T01:47:40.609Z,101060.84
2019-06-27T01:50:09.923Z,101062.64
2019-06-27T01:52:39.260Z,101059.69
2019-06-27T01:55:08.838Z,101057.63
2019-06-27T01:57:46.652Z,101066.47
2019-06-27T02:00:10.216Z,101064.40
2019-06-27T02:02:39.826Z,101064.77
2019-06-27T02:05:09.018Z,101067.55
2019-06-27T02:07:38.310Z,101069.47
2019-06-27T02:10:07.977Z,101069.02
2019-06-27T02:12:37.225Z,101070.75
2019-06-27T02:15:06.632Z,101074.73
2019-06-27T02:17:36.124Z,101073.44
2019-06-27T02:20:08.478Z,101081.46
2019-06-27T02:22:37.832Z,101079.82
2019-06-27T02:25:07.661Z,101082.53
2019-06-27T02:27:36.885Z,101077.17
2019-06-27T02:30:09.460Z,101077.90
2019-06-27T02:32:38.793Z,101077.36
2019-06-27T02:35:12.886Z,101081.59
2019-06-27T02:37:43.498Z,101079.47
2019-06-27T02:40:12.728Z,101076.02
2019-06-27T02:42:42.169Z,101080.78
2019-06-27T02:45:11.954Z,101082.79
2019-06-27T02:47:41.155Z,101088.20
2019-06-27T02:50:10.504Z,101084.25
2019-06-27T02:52:40.109Z,101082.14
2019-06-27T02:55:09.368Z,101085.25
2019-06-27T02:57:38.649Z,101084.80
2019-06-27T03:00:09.292Z,101086.97
2019-06-27T03:02:38.583Z,101086.70
2019-06-27T03:05:07.907Z,101083.84
2019-06-27T03:07:39.708Z,101089.31
2019-06-27T03:10:09.432Z,101090.98
2019-06-27T03:12:38.732Z,101087.97
2019-06-27T03:15:09.272Z,101091.73
2019-06-27T03:17:38.506Z,101090.93
2019-06-27T03:20:07.940Z,101093.37
2019-06-27T03:22:37.495Z,101098.13
2019-06-27T03:25:06.826Z,101098.83
2019-06-27T03:27:36.140Z,101090.36
2019-06-27T03:30:06.770Z,101096.16
2019-06-27T03:32:35.959Z,101094.04
2019-06-27T03:35:05.863Z,101093.34
2019-06-27T03:37:35.515Z,101099.11
2019-06-27T03:40:07.395Z,101097.48
2019-06-27T03:42:36.692Z,101096.83
2019-06-27T03:45:06.479Z,101098.76
2019-06-27T03:47:35.960Z,101095.20
2019-06-27T03:50:09.314Z,101100.65
2019-06-27T03:52:45.355Z,101098.30
2019-06-27T03:55:15.249Z,101092.89
2019-06-27T03:57:45.675Z,101110.22
2019-06-27T04:00:23.855Z,101113.77
2019-06-27T04:02:53.083Z,101114.97
2019-06-27T04:05:23.447Z,101115.50
2019-06-27T04:07:53.396Z,101116.16
2019-06-27T04:10:23.236Z,101114.13
2019-06-27T04:12:53.745Z,101116.89
2019-06-27T04:15:23.110Z,101124.97
2019-06-27T04:17:53.003Z,101122.27
2019-06-27T04:20:25.622Z,101122.77
2019-06-27T04:22:55.666Z,101127.86
2019-06-27T04:25:25.765Z,101127.86
2019-06-27T04:28:00.109Z,101132.27
2019-06-27T04:30:29.858Z,101130.06
2019-06-27T04:32:59.931Z,101134.28
2019-06-27T04:35:30.094Z,101132.45
2019-06-27T04:38:00.717Z,101135.19
2019-06-27T04:40:30.655Z,101133.20
2019-06-27T04:43:05.309Z,101132.34
2019-06-27T04:45:33.251Z,101139.13
2019-06-27T04:48:05.434Z,101141.67
2019-06-27T04:50:34.701Z,101142.55
2019-06-27T04:53:04.297Z,101144.27
2019-06-27T04:55:33.627Z,101147.80
2019-06-27T04:58:04.896Z,101148.45
2019-06-27T05:00:35.365Z,101147.31
2019-06-27T05:03:04.696Z,101153.20
2019-06-27T05:05:34.018Z,101153.70
2019-06-27T05:08:07.856Z,101157.09
2019-06-27T05:10:37.633Z,101164.05
2019-06-27T05:13:06.896Z,101159.81
2019-06-27T05:15:36.690Z,101166.22
2019-06-27T05:18:09.285Z,101164.72
2019-06-27T05:20:38.676Z,101167.11
2019-06-27T05:23:08.267Z,101174.55
2019-06-27T05:25:37.689Z,101173.52
2019-06-27T05:28:07.293Z,101176.77
2019-06-27T05:30:36.648Z,101180.16
2019-06-27T05:33:06.078Z,101183.36
2019-06-27T05:35:35.564Z,101195.52
2019-06-27T05:38:07.947Z,101188.95
2019-06-27T05:40:37.231Z,101192.33
2019-06-27T05:43:06.468Z,101196.41
2019-06-27T05:45:35.783Z,101199.09
2019-06-27T05:48:07.468Z,101202.31
2019-06-27T05:50:36.852Z,101207.17
2019-06-27T05:53:06.147Z,101202.94
2019-06-27T05:55:35.736Z,101203.44
2019-06-27T05:58:05.821Z,101207.64
2019-06-27T06:00:35.384Z,101201.23
2019-06-27T06:03:04.864Z,101212.56
2019-06-27T06:05:34.253Z,101217.61
2019-06-27T06:08:06.366Z,101209.51
2019-06-27T06:10:35.659Z,101213.92
2019-06-27T06:13:05.193Z,101213.92
2019-06-27T06:15:34.866Z,101204.27
2019-06-27T06:18:05.265Z,101210.01
2019-06-27T06:20:34.528Z,101218.46
2019-06-27T06:23:04.254Z,101219.30
2019-06-27T06:25:33.465Z,101215.25
2019-06-27T06:28:03.288Z,101217.91
2019-06-27T06:30:44.321Z,101219.08
2019-06-27T06:33:09.613Z,101217.72
2019-06-27T06:35:38.834Z,101223.30
2019-06-27T06:38:08.499Z,101223.96
2019-06-27T06:40:37.856Z,101226.83
2019-06-27T06:43:08.929Z,101221.05
2019-06-27T06:45:40.736Z,101222.77
2019-06-27T06:48:11.202Z,101219.84
2019-06-27T06:50:40.575Z,101221.23
2019-06-27T06:53:11.177Z,101225.80
2019-06-27T06:55:42.931Z,101226.63
2019-06-27T06:58:12.413Z,101218.34
2019-06-27T07:00:57.064Z,101230.36
2019-06-27T07:03:14.969Z,101230.50
2019-06-27T07:05:44.822Z,101230.48
2019-06-27T07:08:16.064Z,101232.34
2019-06-27T07:10:45.578Z,101232.34
2019-06-27T07:13:18.002Z,101234.02
2019-06-27T07:15:49.656Z,101232.55
2019-06-27T07:18:22.334Z,101236.41
2019-06-27T07:20:51.773Z,101232.36
2019-06-27T07:23:27.523Z,101234.38
2019-06-27T07:26:00.514Z,101240.08
2019-06-27T07:28:30.064Z,101232.79
2019-06-27T07:31:17.159Z,101231.97
2019-06-27T07:33:39.426Z,101232.81
2019-06-27T07:36:11.691Z,101230.63
2019-06-27T07:38:46.905Z,101239.77
2019-06-27T07:41:18.269Z,101232.86
2019-06-27T07:43:47.993Z,101234.56
2019-06-27T07:46:25.295Z,101242.65
2019-06-27T07:48:49.403Z,101237.05
2019-06-27T07:51:19.299Z,101240.78
2019-06-27T07:53:51.715Z,101241.80
2019-06-27T07:56:25.939Z,101240.92
2019-06-27T07:58:57.789Z,101239.21
2019-06-27T08:01:35.199Z,101236.30
2019-06-27T08:03:58.090Z,101237.84
2019-06-27T08:06:27.379Z,101235.61
2019-06-27T08:08:56.569Z,101244.76
2019-06-27T08:11:25.871Z,101234.78
2019-06-27T08:13:58.123Z,101248.16
2019-06-27T08:16:27.606Z,101247.78
2019-06-27T08:18:56.867Z,101240.67
2019-06-27T08:21:30.564Z,101238.88
2019-06-27T08:24:00.197Z,101244.80
2019-06-27T08:26:29.559Z,101239.70
2019-06-27T08:28:58.863Z,101244.16
2019-06-27T08:31:28.524Z,101236.05
2019-06-27T08:33:57.910Z,101233.02
2019-06-27T08:36:27.506Z,101229.97
2019-06-27T08:38:57.168Z,101228.64
2019-06-27T08:41:26.513Z,101237.58
2019-06-27T08:43:55.793Z,101230.00
2019-06-27T08:46:25.337Z,101232.52
2019-06-27T08:48:54.779Z,101225.75
2019-06-27T08:51:24.331Z,101229.81
2019-06-27T08:53:54.483Z,101226.73
2019-06-27T08:56:23.723Z,101227.42
2019-06-27T08:58:52.981Z,101223.39
2019-06-27T09:01:22.607Z,101229.94
2019-06-27T09:03:51.906Z,101229.06
2019-06-27T09:06:21.375Z,101231.92
2019-06-27T09:08:50.993Z,101229.22
2019-06-27T09:11:20.343Z,101235.77
2019-06-27T09:13:49.607Z,101229.38
2019-06-27T09:16:19.138Z,101227.80
2019-06-27T09:18:48.434Z,101227.77
2019-06-27T09:21:17.981Z,101222.05
2019-06-27T09:23:48.165Z,101229.94
2019-06-27T09:26:17.924Z,101229.94
2019-06-27T09:28:47.294Z,101241.11
2019-06-27T09:31:18.470Z,101230.98
2019-06-27T09:33:47.833Z,101239.77
2019-06-27T09:36:17.226Z,101235.83
2019-06-27T09:38:46.776Z,101239.81
2019-06-27T09:41:16.327Z,101243.69
2019-06-27T09:43:45.575Z,101239.90
2019-06-27T09:46:15.264Z,101244.77
2019-06-27T09:48:44.550Z,101243.34
2019-06-27T09:51:14.201Z,101241.59
2019-06-27T09:53:43.835Z,101239.31
2019-06-27T09:56:13.146Z,101249.39
2019-06-27T09:58:42.423Z,101240.03
2019-06-27T10:01:13.129Z,101237.81
2019-06-27T10:03:42.375Z,101237.92
2019-06-27T10:06:11.667Z,101239.06
2019-06-27T10:08:41.394Z,101241.53
2019-06-27T10:11:10.747Z,101235.91
2019-06-27T10:13:39.987Z,101236.56
2019-06-27T10:16:09.668Z,101236.12
2019-06-27T10:18:39.109Z,101234.91
2019-06-27T10:21:08.751Z,101236.02
2019-06-27T10:23:38.413Z,101233.79
2019-06-27T10:26:07.781Z,101237.25
2019-06-27T10:28:37.101Z,101234.08
2019-06-27T10:31:06.451Z,101234.86
2019-06-27T10:33:35.745Z,101235.78
2019-06-27T10:36:09.631Z,101241.16
2019-06-27T10:38:39.214Z,101234.77
2019-06-27T10:41:08.485Z,101226.20
2019-06-27T10:43:38.169Z,101226.78
2019-06-27T10:46:07.635Z,101223.30
2019-06-27T10:48:38.203Z,101231.00
2019-06-27T10:51:07.485Z,101227.20
2019-06-27T10:53:37.613Z,101231.86
2019-06-27T10:56:08.662Z,101229.62
2019-06-27T10:58:38.022Z,101231.99
2019-06-27T11:01:07.291Z,101228.18
2019-06-27T11:03:38.507Z,101221.89
2019-06-27T11:06:07.920Z,101215.24
2019-06-27T11:08:37.247Z,101219.42
2019-06-27T11:11:07.814Z,101217.80
2019-06-27T11:13:37.323Z,101214.72
2019-06-27T11:16:07.041Z,101216.64
2019-06-27T11:18:39.864Z,101212.95
2019-06-27T11:21:09.521Z,101211.60
2019-06-27T11:23:39.363Z,101201.10
2019-06-27T11:26:09.737Z,101202.53
2019-06-27T11:28:39.688Z,101196.37
2019-06-27T11:31:09.801Z,101192.55
2019-06-27T11:33:42.067Z,101189.89
2019-06-27T11:36:12.181Z,101191.58
2019-06-27T11:38:45.941Z,101186.85
2019-06-27T11:41:16.209Z,101189.83
2019-06-27T11:43:46.611Z,101182.50
2019-06-27T11:46:16.872Z,101178.03
2019-06-27T11:48:47.017Z,101177.92
2019-06-27T11:51:17.109Z,101184.66
2019-06-27T11:53:46.997Z,101179.85
2019-06-27T11:56:19.510Z,101169.91
2019-06-27T11:58:49.459Z,101172.42
2019-06-27T12:01:22.086Z,101171.23
2019-06-27T12:03:52.507Z,101173.13
2019-06-27T12:06:22.969Z,101169.38
2019-06-27T12:08:53.480Z,101167.91
2019-06-27T12:11:23.994Z,101161.64
2019-06-27T12:13:53.833Z,101155.82
2019-06-27T12:16:23.951Z,101160.09
2019-06-27T12:18:54.393Z,101165.36
2019-06-27T12:21:25.186Z,101155.08
2019-06-27T12:23:58.636Z,101149.97
2019-06-27T12:26:29.703Z,101144.02
2019-06-27T12:29:00.187Z,101146.41
2019-06-27T12:31:31.630Z,101145.25
2019-06-27T12:34:07.328Z,101140.14
2019-06-27T12:36:36.192Z,101139.91
2019-06-27T12:39:07.279Z,101141.38
2019-06-27T12:41:37.607Z,101140.33
2019-06-27T12:44:07.860Z,101136.21
2019-06-27T12:46:38.302Z,101132.58
2019-06-27T12:49:08.895Z,101133.06
2019-06-27T12:51:39.544Z,101136.62
2019-06-27T12:54:10.050Z,101133.42
2019-06-27T12:56:42.531Z,101132.62
2019-06-27T12:59:13.099Z,101122.95
2019-06-27T13:01:43.837Z,101122.27
2019-06-27T13:04:23.557Z,101125.16
2019-06-27T13:06:46.267Z,101120.58
2019-06-27T13:09:21.324Z,101118.27
2019-06-27T13:11:52.248Z,101116.34
2019-06-27T13:14:22.903Z,101115.28
2019-06-27T13:16:54.894Z,101113.59
2019-06-27T13:19:25.957Z,101110.45
2019-06-27T13:21:58.157Z,101107.55
2019-06-27T13:24:28.749Z,101109.20
2019-06-27T13:27:04.160Z,101121.08
2019-06-27T13:29:36.726Z,101124.30
2019-06-27T13:32:07.268Z,101114.74
2019-06-27T13:34:41.099Z,101111.32
2019-06-27T13:37:13.976Z,101109.21
2019-06-27T13:39:46.640Z,101103.94
2019-06-27T13:42:19.324Z,101101.97
2019-06-27T13:44:50.505Z,101100.08
2019-06-27T13:47:24.626Z,101102.45
2019-06-27T13:49:55.707Z,101096.74
2019-06-27T13:52:25.925Z,101095.54
2019-06-27T13:54:57.351Z,101092.38
2019-06-27T13:57:28.729Z,101090.86
2019-06-27T13:59:59.357Z,101086.36
2019-06-27T14:02:31.537Z,101084.78
2019-06-27T14:05:01.894Z,101086.88
2019-06-27T14:07:37.160Z,101077.06
2019-06-27T14:10:08.672Z,101083.84
2019-06-27T14:12:44.771Z,101074.52
2019-06-27T14:15:15.052Z,101081.30
2019-06-27T14:17:46.057Z,101075.02
2019-06-27T14:20:17.267Z,101076.48
2019-06-27T14:22:48.645Z,101075.66
2019-06-27T14:25:21.219Z,101071.99
2019-06-27T14:27:53.128Z,101072.29
2019-06-27T14:30:26.102Z,101063.17
2019-06-27T14:33:00.855Z,101061.72
2019-06-27T14:35:44.970Z,101066.14
2019-06-27T14:38:21.302Z,101059.63
2019-06-27T14:40:59.013Z,101059.05
2019-06-27T14:43:30.201Z,101059.55
2019-06-27T14:46:00.655Z,101059.78
2019-06-27T14:48:31.936Z,101065.63
2019-06-27T14:51:06.831Z,101065.79
2019-06-27T14:53:37.961Z,101054.11
2019-06-27T14:56:12.562Z,101060.04
2019-06-27T14:58:48.541Z,101053.86
2019-06-27T15:01:26.189Z,101046.70
2019-06-27T15:04:09.061Z,101054.36
2019-06-27T15:06:45.452Z,101052.81
2019-06-27T15:09:18.162Z,101048.78
2019-06-27T15:11:51.509Z,101043.00
2019-06-27T15:14:22.883Z,101040.53
2019-06-27T15:17:13.090Z,101050.57
2019-06-27T15:19:44.728Z,101050.53
2019-06-27T15:22:19.569Z,101041.03
2019-06-27T15:24:53.455Z,101041.41
2019-06-27T15:27:32.078Z,101038.91
2019-06-27T15:30:06.099Z,101034.47
2019-06-27T15:32:37.066Z,101032.55
2019-06-27T15:35:07.523Z,101034.27
2019-06-27T15:37:40.435Z,101033.20
2019-06-27T15:40:16.296Z,101037.64
2019-06-27T15:42:56.715Z,101034.52
2019-06-27T15:45:36.094Z,101027.34
2019-06-27T15:48:14.405Z,101024.27
2019-06-27T15:50:53.555Z,101026.80
2019-06-27T15:53:26.305Z,101025.00
2019-06-27T15:55:57.308Z,101027.06
2019-06-27T15:58:37.882Z,101022.80
2019-06-27T16:01:17.747Z,101013.27
2019-06-27T16:03:50.435Z,101025.34
2019-06-27T16:06:23.863Z,101016.54
2019-06-27T16:08:55.678Z,101009.00
2019-06-27T16:11:29.411Z,101016.72
2019-06-27T16:14:07.739Z,101012.30
2019-06-27T16:16:44.586Z,101010.11
2019-06-27T16:19:19.158Z,101001.26
2019-06-27T16:21:56.269Z,101005.14
2019-06-27T16:24:31.998Z,100998.78
2019-06-27T16:27:16.023Z,101001.83
2019-06-27T16:29:50.877Z,100997.65
2019-06-27T16:32:27.779Z,100990.64
2019-06-27T16:35:00.427Z,100994.86
2019-06-27T16:37:35.460Z,101000.23
2019-06-27T16:40:24.238Z,100991.14
2019-06-27T16:42:57.524Z,100993.08
2019-06-27T16:45:30.075Z,100998.42
2019-06-27T16:48:02.551Z,100995.23
2019-06-27T16:50:33.068Z,100995.95
2019-06-27T16:53:05.467Z,100997.67
2019-06-27T16:55:36.299Z,100990.91
2019-06-27T16:58:11.303Z,100991.77
2019-06-27T17:00:44.545Z,100995.96
2019-06-27T17:03:16.672Z,100992.95
2019-06-27T17:06:06.205Z,100988.42
2019-06-27T17:08:39.864Z,100983.25
2019-06-27T17:11:10.916Z,100984.89
2019-06-27T17:13:41.933Z,100984.89
2019-06-27T17:16:13.198Z,100985.87
2019-06-27T17:18:48.423Z,100987.52
2019-06-27T17:21:18.791Z,100993.50
2019-06-27T17:23:49.575Z,100989.74
2019-06-27T17:26:26.529Z,100998.94
2019-06-27T17:29:03.078Z,100988.41
2019-06-27T17:31:39.617Z,100988.95
2019-06-27T17:34:16.300Z,100992.83
2019-06-27T17:36:57.530Z,100990.29
2019-06-27T17:39:34.155Z,100986.11
2019-06-27T17:42:16.980Z,100991.23
2019-06-27T17:44:56.153Z,100997.28
2019-06-27T17:47:39.843Z,101001.12
2019-06-27T17:50:30.458Z,100997.64
2019-06-27T17:53:07.844Z,100992.31
2019-06-27T17:55:42.518Z,100993.69
2019-06-27T17:58:14.884Z,100996.28
2019-06-27T18:00:50.302Z,100993.78
2019-06-27T18:03:23.220Z,100996.45
2019-06-27T18:05:55.073Z,101000.97
2019-06-27T18:08:31.175Z,100993.15
2019-06-27T18:11:11.920Z,100998.28
2019-06-27T18:13:49.547Z,100995.09
2019-06-27T18:16:25.511Z,100992.41
2019-06-27T18:19:00.839Z,100994.32
2019-06-27T18:21:32.795Z,101000.11
2019-06-27T18:24:08.648Z,100998.27
2019-06-27T18:26:39.385Z,100994.85
2019-06-27T18:29:12.418Z,100995.78
2019-06-27T18:31:47.861Z,101001.25
2019-06-27T18:34:27.012Z,101000.47
2019-06-27T18:37:03.831Z,100999.95
2019-06-27T18:40:12.662Z,100992.86
2019-06-27T18:42:52.062Z,100996.34
2019-06-27T18:45:34.882Z,100998.61
2019-06-27T18:48:09.175Z,100995.15
2019-06-27T18:50:41.597Z,100996.95
2019-06-27T18:53:23.108Z,101003.34
2019-06-27T18:55:57.139Z,101002.61
2019-06-27T18:58:40.494Z,101001.85
2019-06-27T19:04:26.943Z,101012.87
2019-06-27T19:07:00.648Z,101013.30
2019-06-27T19:09:36.058Z,101012.02
2019-06-27T19:15:09.561Z,101015.48
2019-06-27T19:17:46.683Z,101017.06
2019-06-27T19:20:37.285Z,101022.91
2019-06-27T19:23:38.919Z,101019.08
2019-06-27T19:26:13.250Z,101022.63
2019-06-27T19:29:05.633Z,101029.11
2019-06-27T19:31:39.710Z,101035.38
2019-06-27T19:35:13.339Z,101031.95
2019-06-27T19:38:04.400Z,101034.45
2019-06-27T19:40:58.335Z,101041.72
2019-06-27T19:44:23.718Z,101045.62
2019-06-27T19:47:03.544Z,101042.61
2019-06-27T19:49:37.278Z,101056.89
2019-06-27T19:52:18.437Z,101056.27
2019-06-27T19:55:40.157Z,101053.94
2019-06-27T19:59:17.896Z,101057.58
2019-06-27T20:02:09.789Z,101059.65
2019-06-27T20:04:58.617Z,101061.10
2019-06-27T20:07:32.013Z,101074.78
2019-06-27T20:10:12.917Z,101074.20
2019-06-27T20:12:51.964Z,101072.88
2019-06-27T20:15:58.227Z,101078.28
2019-06-27T20:18:36.747Z,101077.77
2019-06-27T20:21:18.237Z,101080.84
2019-06-27T20:24:10.746Z,101082.50
2019-06-27T20:26:51.589Z,101086.06
2019-06-27T20:29:45.160Z,101088.44
2019-06-27T20:32:19.237Z,101094.34
2019-06-27T20:34:59.231Z,101093.70
2019-06-27T20:37:50.477Z,101100.27
2019-06-27T20:40:25.203Z,101101.63
2019-06-27T20:43:07.913Z,101102.14
2019-06-27T20:45:39.374Z,101096.28
2019-06-27T20:48:12.519Z,101097.69
2019-06-27T20:50:44.059Z,101105.51
2019-06-27T20:53:17.234Z,101105.71
2019-06-27T20:55:49.959Z,101102.44
2019-06-27T20:58:29.108Z,101103.84
2019-06-27T21:01:00.383Z,101105.25
2019-06-27T21:03:31.048Z,101111.06
2019-06-27T21:06:03.529Z,101117.89
2019-06-27T21:08:50.895Z,101117.17
2019-06-27T21:11:17.644Z,101124.22
2019-06-27T21:13:50.254Z,101125.24
2019-06-27T21:16:21.134Z,101134.70
2019-06-27T21:18:52.762Z,101130.32
2019-06-27T21:21:32.553Z,101124.20
2019-06-27T21:24:05.549Z,101122.71
2019-06-27T21:26:35.970Z,101125.94
2019-06-27T21:29:06.062Z,101131.52
2019-06-27T21:31:35.998Z,101135.09
2019-06-27T21:34:09.306Z,101133.48
2019-06-27T21:36:39.155Z,101135.95
2019-06-27T21:39:08.956Z,101140.84
2019-06-27T21:41:38.863Z,101139.80
2019-06-27T21:44:08.297Z,101144.34
2019-06-27T21:46:37.574Z,101140.38
2019-06-27T21:49:07.198Z,101137.48
2019-06-27T21:51:36.519Z,101144.40
2019-06-27T21:54:14.113Z,101146.45
2019-06-27T21:56:54.968Z,101154.98
2019-06-27T21:59:27.961Z,101153.99
2019-06-27T22:01:57.673Z,101155.81
2019-06-27T22:04:30.423Z,101155.33
2019-06-27T22:07:25.069Z,101155.02
2019-06-27T22:09:59.648Z,101156.63
2019-06-27T22:12:28.989Z,101157.89
2019-06-27T22:14:59.853Z,101161.08
2019-06-27T22:17:34.428Z,101159.43
2019-06-27T22:20:15.937Z,101157.64
2019-06-27T22:22:45.463Z,101152.07
2019-06-27T22:25:21.569Z,101152.47
2019-06-27T22:27:51.054Z,101151.67
2019-06-27T22:30:20.468Z,101155.27
2019-06-27T22:32:53.247Z,101151.56
2019-06-27T22:35:22.585Z,101152.27
2019-06-27T22:38:09.508Z,101151.86
2019-06-27T22:40:59.614Z,101155.58
2019-06-27T22:43:47.927Z,101161.59
2019-06-27T22:46:38.068Z,101159.12
2019-06-27T22:49:06.334Z,101152.70
2019-06-27T22:51:59.295Z,101153.59
2019-06-27T22:54:29.774Z,101156.66
2019-06-27T22:56:59.385Z,101153.27
2019-06-27T22:59:29.146Z,101156.39
2019-06-27T23:01:58.416Z,101152.53
2019-06-27T23:04:30.177Z,101155.16
2019-06-27T23:07:03.435Z,101158.56
2019-06-27T23:09:33.618Z,101151.18
2019-06-27T23:12:27.605Z,101150.20
2019-06-27T23:15:00.715Z,101151.25
2019-06-27T23:17:31.935Z,101154.84
2019-06-27T23:20:03.475Z,101156.73
2019-06-27T23:22:35.936Z,101154.25
2019-06-27T23:25:07.975Z,101154.97
2019-06-27T23:27:39.594Z,101157.02
2019-06-27T23:30:08.867Z,101153.87
2019-06-27T23:32:38.079Z,101163.70
2019-06-27T23:35:08.672Z,101161.21
2019-06-27T23:37:37.931Z,101162.59
2019-06-27T23:40:14.218Z,101158.21
2019-06-27T23:42:40.922Z,101156.20
2019-06-27T23:45:10.377Z,101158.45
2019-06-27T23:47:39.760Z,101150.02
2019-06-27T23:50:09.705Z,101149.70
2019-06-27T23:52:39.087Z,101149.89
2019-06-27T23:55:08.657Z,101146.02
2019-06-27T23:57:38.199Z,101145.84
